KCSM/CSM METAR and TAF weather

Enter ICAO airport designator
Station Type Date Time Source
KCSM METAR 2018/01/19 16:53 UTC NOAA

KCSM 191653Z 20020KT 10SM CLR 06/M07 A2999 RMK AO2 SLP159 T00561072


Station Type Date Time Source
KCSM Decoded METAR 2018/01/19 16:53 UTC NOAA

CLINTON-SHERMAN AIRPORT, OK, United States (KCSM) 35-21E 99-12W 588M
Jan 19, 2018 - 11:53 AM EST / 2018.01.19 1653 UTC
Wind: from the SSW (200 degrees) at 23 MPH (20 KT):0
Visibility: 10 mile(s):0
Sky conditions: clear
Temperature: 42.1 F (5.6 C)
Dew Point: 19.0 F (-7.2 C)
Relative Humidity: 39%
Pressure (altimeter): 29.99 in. Hg (1015 hPa)
ob: KCSM 191653Z 20020KT 10SM CLR 06/M07 A2999 RMK AO2 SLP159 T00561072
cycle: 17

Station Type Date Time Source
KCSM TAF 2018/01/19 18:39 UTC NOAA

TAF KCSM 191738Z 1918/2018 19018G27KT P6SM BKN250


Example: see airport list